Time;durP1;ratioP1;P1;durP2;ratioP2;P2;SDS_P1;SDS_P2;PMS_P1;PMS_P2;Temp;Humidity;BMP_temperature;BMP_pressure;BME280_temperature;BME280_humidity;BME280_pressure;Samples;Min_cycle;Max_cycle;Signal;HPM_P1;HPM_P2
2022/12/03 00:01:18;;;;;;;;;0.00;0.00;;;;;;;;5096613;27;28327;-92
2022/12/03 00:03:43;;;;;;;;;0.00;0.00;;;;;;;;5098538;27;28825;-92
2022/12/03 00:06:08;;;;;;;;;0.00;0.00;;;;;;;;5098192;27;29805;-92
2022/12/03 00:08:34;;;;;;;;;1.00;1.00;;;;;;;;5099574;27;28515;-93
2022/12/03 00:10:59;;;;;;;;;0.00;0.00;;;;;;;;5102765;27;28294;-95
2022/12/03 00:13:24;;;;;;;;;0.00;0.00;;;;;;;;5103258;27;27841;-92
2022/12/03 00:15:50;;;;;;;;;0.00;0.00;;;;;;;;5096594;27;30057;-93
2022/12/03 00:18:15;;;;;;;;;2.67;2.67;;;;;;;;5096458;27;28498;-94
2022/12/03 00:20:40;;;;;;;;;0.00;0.00;;;;;;;;5095479;27;27938;-93
2022/12/03 00:23:05;;;;;;;;;0.00;0.00;;;;;;;;5114353;27;28463;-94
2022/12/03 00:25:30;;;;;;;;;0.00;0.00;;;;;;;;5113302;27;29307;-94
2022/12/03 00:27:56;;;;;;;;;0.00;0.00;;;;;;;;5095612;27;28948;-93
2022/12/03 00:30:21;;;;;;;;;0.00;0.00;;;;;;;;5095255;27;28470;-93
2022/12/03 00:32:46;;;;;;;;;0.00;0.00;;;;;;;;5095208;27;28377;-94
2022/12/03 00:35:11;;;;;;;;;0.00;0.00;;;;;;;;5095510;27;29892;-93
2022/12/03 00:37:37;;;;;;;;;0.00;0.00;;;;;;;;5095522;27;28526;-93
2022/12/03 00:40:03;;;;;;;;;0.00;0.00;;;;;;;;5094919;27;28494;-92
2022/12/03 00:42:28;;;;;;;;;0.00;0.00;;;;;;;;5095401;27;29311;-94
2022/12/03 00:44:53;;;;;;;;;0.00;0.00;;;;;;;;5095037;27;29880;-93
2022/12/03 00:47:18;;;;;;;;;0.00;0.00;;;;;;;;5095225;27;29567;-93
2022/12/03 00:49:44;;;;;;;;;0.00;0.00;;;;;;;;5094538;27;28389;-94
2022/12/03 00:52:09;;;;;;;;;0.00;0.00;;;;;;;;5094947;27;28498;-92
2022/12/03 00:54:34;;;;;;;;;0.00;0.00;;;;;;;;5094315;27;29753;-92
2022/12/03 00:56:59;;;;;;;;;0.00;0.00;;;;;;;;5095333;27;28478;-92
2022/12/03 00:59:25;;;;;;;;;0.00;0.00;;;;;;;;5094856;27;28449;-94
2022/12/03 01:01:50;;;;;;;;;0.00;0.00;;;;;;;;5095869;27;28524;-93
2022/12/03 01:04:15;;;;;;;;;0.00;0.00;;;;;;;;5095806;27;30007;-94
2022/12/03 01:06:40;;;;;;;;;0.00;0.00;;;;;;;;5096328;27;28386;-94
2022/12/03 01:09:06;;;;;;;;;0.33;0.33;;;;;;;;5096188;27;28320;-92
2022/12/03 01:11:37;;;;;;;;;0.00;0.00;;;;;;;;5099096;27;28480;-92
2022/12/03 01:14:12;;;;;;;;;0.00;0.00;;;;;;;;5101064;27;29897;-94
2022/12/03 01:16:38;;;;;;;;;0.00;0.00;;;;;;;;5098165;27;29402;-94
2022/12/03 01:19:04;;;;;;;;;0.00;0.00;;;;;;;;5098892;27;28505;-94
2022/12/03 01:21:30;;;;;;;;;0.00;0.00;;;;;;;;5098055;27;28580;-93
2022/12/03 01:23:55;;;;;;;;;3.00;3.00;;;;;;;;5098452;27;29844;-93
2022/12/03 01:26:20;;;;;;;;;0.00;0.00;;;;;;;;5098743;27;28842;-93
2022/12/03 01:28:45;;;;;;;;;10.00;9.00;;;;;;;;5094901;28;28337;-92
2022/12/03 01:33:55;;;;;;;;;0.00;0.00;;;;;;;;5116915;27;28485;-93
2022/12/03 01:36:20;;;;;;;;;0.00;0.00;;;;;;;;5097855;27;28517;-94
2022/12/03 01:38:45;;;;;;;;;0.00;0.00;;;;;;;;5098482;27;28607;-93
2022/12/03 01:41:10;;;;;;;;;0.00;0.00;;;;;;;;5098092;27;28343;-93
2022/12/03 01:43:36;;;;;;;;;0.00;0.00;;;;;;;;5097864;27;29825;-93
2022/12/03 01:46:01;;;;;;;;;2.00;2.00;;;;;;;;5097990;27;28572;-93
2022/12/03 01:48:28;;;;;;;;;0.33;0.33;;;;;;;;5097632;27;27862;-93
2022/12/03 01:50:54;;;;;;;;;1.00;1.00;;;;;;;;5097867;27;28655;-94
2022/12/03 01:53:19;;;;;;;;;13.00;13.00;;;;;;;;5097230;27;30099;-93
2022/12/03 01:55:44;;;;;;;;;0.00;0.00;;;;;;;;5098149;27;28692;-94
2022/12/03 01:58:13;;;;;;;;;0.00;0.00;;;;;;;;5098302;27;28587;-92
2022/12/03 02:00:39;;;;;;;;;0.00;0.00;;;;;;;;5098041;27;28606;-94
2022/12/03 02:03:11;;;;;;;;;0.00;0.00;;;;;;;;5099165;27;30426;-92
2022/12/03 02:05:36;;;;;;;;;0.00;0.00;;;;;;;;5098630;27;29129;-94
2022/12/03 02:08:21;;;;;;;;;0.00;0.00;;;;;;;;5099852;27;28566;-93
2022/12/03 02:10:47;;;;;;;;;0.00;0.00;;;;;;;;5102147;27;28470;-93
2022/12/03 02:13:12;;;;;;;;;4.00;4.00;;;;;;;;5104611;27;30733;-94
2022/12/03 02:15:38;;;;;;;;;0.00;0.00;;;;;;;;5096826;28;28432;-94
2022/12/03 02:18:04;;;;;;;;;0.00;0.00;;;;;;;;5095057;28;28141;-93
2022/12/03 02:20:35;;;;;;;;;0.00;0.00;;;;;;;;5093488;27;28548;-94
2022/12/03 02:23:20;;;;;;;;;0.33;0.33;;;;;;;;5094110;27;30453;-94
2022/12/03 02:25:45;;;;;;;;;0.00;0.00;;;;;;;;5094195;27;28947;-93
2022/12/03 02:28:11;;;;;;;;;0.67;0.67;;;;;;;;5097516;27;28650;-93
2022/12/03 02:30:36;;;;;;;;;0.00;0.00;;;;;;;;5097393;27;28345;-93
2022/12/03 02:33:01;;;;;;;;;0.00;0.00;;;;;;;;5097307;27;29764;-94
2022/12/03 02:35:37;;;;;;;;;0.00;0.00;;;;;;;;5096825;27;28826;-93
2022/12/03 02:38:12;;;;;;;;;0.00;0.00;;;;;;;;5115208;27;28387;-92
2022/12/03 02:40:38;;;;;;;;;0.00;0.00;;;;;;;;5097142;27;28491;-93
2022/12/03 02:43:03;;;;;;;;;0.00;0.00;;;;;;;;5097558;27;29830;-93
2022/12/03 02:45:38;;;;;;;;;0.00;0.00;;;;;;;;5097009;27;28664;-94
2022/12/03 02:48:12;;;;;;;;;0.00;0.00;;;;;;;;5096539;27;27893;-93
2022/12/03 02:50:40;;;;;;;;;0.00;0.00;;;;;;;;5096588;27;28648;-93
2022/12/03 02:53:08;;;;;;;;;0.00;0.00;;;;;;;;5081469;28;30217;-93
2022/12/03 02:55:34;;;;;;;;;0.00;0.00;;;;;;;;5094777;28;28675;-93
2022/12/03 02:58:01;;;;;;;;;0.00;0.00;;;;;;;;5076895;28;28473;-92
2022/12/03 03:00:26;;;;;;;;;0.00;0.00;;;;;;;;5076574;28;28441;-93
2022/12/03 03:02:51;;;;;;;;;0.00;0.00;;;;;;;;5088589;27;29729;-93
2022/12/03 03:05:19;;;;;;;;;0.00;0.00;;;;;;;;5096778;27;29761;-92
2022/12/03 03:07:44;;;;;;;;;1.00;1.00;;;;;;;;5098008;27;28489;-93
2022/12/03 03:10:11;;;;;;;;;0.00;0.00;;;;;;;;5099021;27;28500;-93
2022/12/03 03:12:37;;;;;;;;;0.00;0.00;;;;;;;;5102294;27;30948;-93
2022/12/03 03:15:03;;;;;;;;;0.00;0.00;;;;;;;;5102074;27;28723;-92
2022/12/03 03:17:28;;;;;;;;;0.00;0.00;;;;;;;;5100701;27;28499;-92
2022/12/03 03:19:53;;;;;;;;;0.00;0.00;;;;;;;;5096522;27;28392;-93
2022/12/03 03:22:18;;;;;;;;;0.00;0.00;;;;;;;;5096863;27;29941;-92
2022/12/03 03:24:44;;;;;;;;;0.00;0.00;;;;;;;;5115030;27;28600;-92
2022/12/03 03:27:09;;;;;;;;;0.67;0.67;;;;;;;;5096416;27;28461;-93
2022/12/03 03:29:35;;;;;;;;;0.00;0.00;;;;;;;;5095953;27;28370;-93
2022/12/03 03:32:01;;;;;;;;;0.00;0.00;;;;;;;;5096108;27;30759;-92
2022/12/03 03:34:26;;;;;;;;;0.00;0.00;;;;;;;;5095765;27;28940;-92
2022/12/03 03:36:52;;;;;;;;;0.00;0.00;;;;;;;;5096273;27;28422;-92
2022/12/03 03:39:17;;;;;;;;;0.00;0.00;;;;;;;;5095799;27;28883;-94
2022/12/03 03:41:44;;;;;;;;;0.00;0.00;;;;;;;;5096315;27;30694;-93
2022/12/03 03:44:10;;;;;;;;;0.00;0.00;;;;;;;;5096550;27;28774;-94
2022/12/03 03:46:36;;;;;;;;;0.00;0.00;;;;;;;;5096600;27;28469;-93
2022/12/03 03:49:02;;;;;;;;;0.00;0.00;;;;;;;;5096053;27;28682;-93
2022/12/03 03:51:27;;;;;;;;;0.00;0.00;;;;;;;;5096251;27;30241;-92
2022/12/03 03:53:53;;;;;;;;;0.00;0.00;;;;;;;;5095784;27;28801;-93
2022/12/03 03:56:19;;;;;;;;;4.00;4.00;;;;;;;;5096580;27;28451;-94
2022/12/03 03:58:44;;;;;;;;;1.00;1.00;;;;;;;;5096345;27;27968;-94
2022/12/03 04:01:11;;;;;;;;;0.00;0.00;;;;;;;;5095687;27;30981;-92
2022/12/03 04:03:36;;;;;;;;;0.00;0.00;;;;;;;;5096570;27;28875;-93
2022/12/03 04:06:01;;;;;;;;;0.00;0.00;;;;;;;;5097421;27;28360;-93
2022/12/03 04:08:26;;;;;;;;;0.00;0.00;;;;;;;;5097588;27;28497;-93
2022/12/03 04:13:36;;;;;;;;;0.00;0.00;;;;;;;;5115011;27;27842;-93
2022/12/03 04:16:01;;;;;;;;;3.00;3.00;;;;;;;;5078261;28;27801;-92
2022/12/03 04:18:41;;;;;;;;;0.00;0.00;;;;;;;;5095600;27;27839;-93
2022/12/03 04:23:51;;;;;;;;;7.00;7.00;;;;;;;;5115775;27;28841;-93
2022/12/03 04:29:00;;;;;;;;;9.00;9.00;;;;;;;;5113602;27;28475;-93
2022/12/03 04:36:53;;;;;;;;;0.00;0.00;;;;;;;;5113772;27;27811;-93
2022/12/03 04:39:18;;;;;;;;;0.00;0.00;;;;;;;;5094912;27;28844;-93
2022/12/03 04:41:43;;;;;;;;;0.00;0.00;;;;;;;;5095740;27;29998;-93
2022/12/03 04:46:52;;;;;;;;;0.00;0.00;;;;;;;;5112520;27;28394;-92
2022/12/03 04:49:18;;;;;;;;;0.00;0.00;;;;;;;;5095241;27;28482;-94
2022/12/03 04:51:43;;;;;;;;;3.00;3.00;;;;;;;;5092029;28;30098;-93
2022/12/03 04:54:08;;;;;;;;;0.00;0.00;;;;;;;;5091343;28;28600;-93
2022/12/03 04:56:33;;;;;;;;;0.00;0.00;;;;;;;;5091750;27;27827;-93
2022/12/03 04:58:59;;;;;;;;;0.00;0.00;;;;;;;;5091235;28;28667;-93
2022/12/03 05:01:24;;;;;;;;;0.00;0.00;;;;;;;;5091870;27;29780;-94
2022/12/03 05:03:49;;;;;;;;;0.00;0.00;;;;;;;;5095294;27;28421;-94
2022/12/03 05:06:14;;;;;;;;;0.00;0.00;;;;;;;;5095401;27;28490;-94
2022/12/03 05:08:39;;;;;;;;;0.00;0.00;;;;;;;;5096231;27;28435;-92
2022/12/03 05:11:05;;;;;;;;;0.00;0.00;;;;;;;;5114475;27;28483;-94
2022/12/03 05:13:30;;;;;;;;;0.00;0.00;;;;;;;;5097404;27;28710;-92
2022/12/03 05:15:55;;;;;;;;;0.00;0.00;;;;;;;;5100975;27;28408;-93
2022/12/03 05:18:20;;;;;;;;;0.00;0.00;;;;;;;;5100070;27;28699;-91
2022/12/03 05:20:46;;;;;;;;;1.00;1.00;;;;;;;;5095845;27;29861;-92
2022/12/03 05:23:12;;;;;;;;;0.00;0.00;;;;;;;;5095508;27;28762;-93
2022/12/03 05:25:37;;;;;;;;;1.33;0.33;;;;;;;;5094713;27;28573;-93
2022/12/03 05:28:03;;;;;;;;;1.00;1.00;;;;;;;;5094758;27;27922;-92
2022/12/03 05:30:28;;;;;;;;;0.00;0.00;;;;;;;;5094516;27;30127;-93
2022/12/03 05:32:54;;;;;;;;;0.00;0.00;;;;;;;;5094368;27;28759;-92
2022/12/03 05:35:19;;;;;;;;;0.00;0.00;;;;;;;;5094185;27;28332;-92
2022/12/03 05:37:44;;;;;;;;;0.00;0.00;;;;;;;;5094840;27;28358;-95
2022/12/03 05:40:10;;;;;;;;;0.00;0.00;;;;;;;;5094345;27;30896;-93
2022/12/03 05:42:53;;;;;;;;;0.00;0.00;;;;;;;;5112430;27;28457;-93
2022/12/03 05:45:19;;;;;;;;;3.00;3.00;;;;;;;;5094375;27;28500;-93
2022/12/03 05:47:44;;;;;;;;;1.00;1.00;;;;;;;;5094154;27;28533;-92
2022/12/03 05:50:10;;;;;;;;;4.33;4.33;;;;;;;;5094279;27;30527;-93
2022/12/03 05:52:35;;;;;;;;;0.00;0.00;;;;;;;;5094888;27;29927;-94
2022/12/03 05:55:00;;;;;;;;;0.00;0.00;;;;;;;;5094277;27;28417;-93
2022/12/03 05:57:25;;;;;;;;;0.00;0.00;;;;;;;;5095899;27;28259;-93
2022/12/03 05:59:51;;;;;;;;;0.00;0.00;;;;;;;;5098134;27;29942;-93
2022/12/03 06:02:16;;;;;;;;;0.00;0.00;;;;;;;;5097987;27;28551;-93
2022/12/03 06:04:41;;;;;;;;;0.00;0.00;;;;;;;;5097383;27;28529;-93
2022/12/03 06:07:06;;;;;;;;;0.00;0.00;;;;;;;;5097989;27;28465;-93
2022/12/03 06:09:31;;;;;;;;;0.00;0.00;;;;;;;;5099107;27;29706;-94
2022/12/03 06:11:57;;;;;;;;;0.00;0.00;;;;;;;;5098457;27;28960;-93
2022/12/03 06:14:22;;;;;;;;;10.00;10.00;;;;;;;;5099721;27;27835;-94
2022/12/03 06:16:47;;;;;;;;;0.00;0.00;;;;;;;;5103132;27;28497;-92
2022/12/03 06:19:12;;;;;;;;;0.00;0.00;;;;;;;;5106809;27;29827;-93
2022/12/03 06:21:38;;;;;;;;;1.00;1.00;;;;;;;;5101921;27;28557;-93
2022/12/03 06:24:03;;;;;;;;;0.00;0.00;;;;;;;;5097309;27;28247;-94
2022/12/03 06:26:31;;;;;;;;;0.00;0.00;;;;;;;;5097978;27;28321;-93
2022/12/03 06:28:56;;;;;;;;;0.00;0.00;;;;;;;;5097647;27;31173;-94
2022/12/03 06:31:22;;;;;;;;;0.00;0.00;;;;;;;;5097250;27;29515;-94
2022/12/03 06:33:47;;;;;;;;;0.00;0.00;;;;;;;;5097369;27;28611;-93
2022/12/03 06:36:12;;;;;;;;;0.00;0.00;;;;;;;;5097009;27;28425;-93
2022/12/03 06:38:37;;;;;;;;;0.00;0.00;;;;;;;;5096587;27;29883;-93
2022/12/03 06:41:03;;;;;;;;;0.00;0.00;;;;;;;;5097017;27;28756;-94
2022/12/03 06:43:29;;;;;;;;;1.00;1.00;;;;;;;;5097160;27;28465;-93
2022/12/03 06:45:55;;;;;;;;;0.00;0.00;;;;;;;;5095754;27;28530;-94
2022/12/03 06:48:20;;;;;;;;;0.00;0.00;;;;;;;;5076920;28;29732;-92
2022/12/03 06:50:45;;;;;;;;;0.00;0.00;;;;;;;;5086822;27;28557;-93
2022/12/03 06:53:10;;;;;;;;;0.00;0.00;;;;;;;;5097885;27;28412;-93
2022/12/03 06:55:35;;;;;;;;;0.00;0.00;;;;;;;;5096329;27;28156;-93
2022/12/03 06:58:01;;;;;;;;;0.00;0.00;;;;;;;;5096954;27;29793;-93
2022/12/03 07:00:26;;;;;;;;;0.00;0.00;;;;;;;;5096788;27;28531;-93
2022/12/03 07:02:51;;;;;;;;;0.00;0.00;;;;;;;;5096865;27;28096;-92
2022/12/03 07:05:16;;;;;;;;;0.33;0.33;;;;;;;;5096538;27;28639;-92
2022/12/03 07:07:41;;;;;;;;;0.00;0.00;;;;;;;;5097204;27;30010;-92
2022/12/03 07:10:07;;;;;;;;;0.00;0.00;;;;;;;;5095609;27;29063;-94
2022/12/03 07:12:32;;;;;;;;;0.00;0.00;;;;;;;;5097833;27;28334;-93
2022/12/03 07:14:58;;;;;;;;;0.00;0.00;;;;;;;;5097469;27;28515;-94
2022/12/03 07:17:23;;;;;;;;;1.00;1.00;;;;;;;;5098430;27;30052;-93
2022/12/03 07:19:48;;;;;;;;;0.00;0.00;;;;;;;;5098825;27;29613;-94
2022/12/03 07:22:13;;;;;;;;;0.00;0.00;;;;;;;;5099363;27;28323;-92
2022/12/03 07:24:38;;;;;;;;;0.00;0.00;;;;;;;;5094440;27;28784;-90
2022/12/03 07:27:04;;;;;;;;;0.00;0.00;;;;;;;;5094906;27;29632;-90
2022/12/03 07:29:29;;;;;;;;;1.33;1.33;;;;;;;;5098764;27;28387;-91
2022/12/03 07:31:55;;;;;;;;;0.00;0.00;;;;;;;;5092696;28;28553;-90
2022/12/03 07:34:21;;;;;;;;;0.33;0.33;;;;;;;;5092789;28;28530;-94
2022/12/03 07:36:46;;;;;;;;;0.00;0.00;;;;;;;;5091870;28;30290;-90
2022/12/03 07:39:11;;;;;;;;;0.00;0.00;;;;;;;;5091939;28;28461;-91
2022/12/03 07:41:36;;;;;;;;;0.00;0.00;;;;;;;;5091677;28;28499;-90
2022/12/03 07:44:02;;;;;;;;;0.00;0.00;;;;;;;;5092778;28;28791;-91
2022/12/03 07:46:27;;;;;;;;;0.00;0.00;;;;;;;;5091861;28;29252;-90
2022/12/03 07:48:52;;;;;;;;;0.00;0.00;;;;;;;;5091407;28;28414;-88
2022/12/03 07:51:17;;;;;;;;;0.00;0.00;;;;;;;;5098208;28;28403;-89
2022/12/03 07:53:42;;;;;;;;;2.00;2.00;;;;;;;;5090654;28;28413;-89
2022/12/03 07:56:08;;;;;;;;;0.00;0.00;;;;;;;;5092484;28;30773;-88
2022/12/03 07:58:33;;;;;;;;;0.67;0.67;;;;;;;;5091282;28;28519;-90
2022/12/03 08:00:58;;;;;;;;;0.00;0.00;;;;;;;;5091547;28;28462;-89
2022/12/03 08:03:23;;;;;;;;;0.00;0.00;;;;;;;;5095708;28;27862;-92
2022/12/03 08:05:49;;;;;;;;;0.00;0.00;;;;;;;;5094012;28;29909;-89
2022/12/03 08:08:14;;;;;;;;;0.00;0.00;;;;;;;;5092122;28;28434;-90
2022/12/03 08:10:39;;;;;;;;;0.00;0.00;;;;;;;;5093134;28;28453;-90
2022/12/03 08:13:09;;;;;;;;;0.00;0.00;;;;;;;;5091163;28;28397;-91
2022/12/03 08:15:34;;;;;;;;;0.00;0.00;;;;;;;;5077647;28;29414;-90
2022/12/03 08:18:04;;;;;;;;;0.00;0.00;;;;;;;;5073551;28;28423;-88
2022/12/03 08:20:33;;;;;;;;;0.00;0.00;;;;;;;;5073399;28;28419;-91
2022/12/03 08:22:58;;;;;;;;;0.00;0.00;;;;;;;;5076132;28;28130;-91
2022/12/03 08:25:23;;;;;;;;;0.00;0.00;;;;;;;;5091422;28;29597;-94
2022/12/03 08:27:49;;;;;;;;;0.00;0.00;;;;;;;;5093430;27;28386;-92
2022/12/03 08:30:15;;;;;;;;;0.00;0.00;;;;;;;;5097395;27;28725;-90
2022/12/03 08:32:40;;;;;;;;;0.00;0.00;;;;;;;;5101656;27;28489;-94
2022/12/03 08:35:22;;;;;;;;;0.00;0.00;;;;;;;;5102062;27;30040;-95
2022/12/03 08:37:54;;;;;;;;;0.00;0.00;;;;;;;;5268982;22;29010;-95
2022/12/03 08:40:26;;;;;;;;;1.00;1.00;;;;;;;;5100895;28;27859;-92
2022/12/03 08:42:53;;;;;;;;;0.00;0.00;;;;;;;;5099241;28;28314;-95
2022/12/03 08:45:18;;;;;;;;;0.00;0.00;;;;;;;;5083944;28;29473;-96
2022/12/03 08:47:43;;;;;;;;;0.00;0.00;;;;;;;;5090171;27;27857;-96
2022/12/03 08:50:29;;;;;;;;;0.00;0.00;;;;;;;;5089357;27;28311;-96
2022/12/03 08:52:58;;;;;;;;;0.00;0.00;;;;;;;;5067212;28;28342;-96
2022/12/03 08:55:30;;;;;;;;;0.00;0.00;;;;;;;;5091488;28;28750;-96
2022/12/03 08:57:56;;;;;;;;;0.00;0.00;;;;;;;;5073069;28;28853;-95
2022/12/03 09:00:22;;;;;;;;;1.33;1.33;;;;;;;;5091699;28;28385;-95
2022/12/03 09:02:58;;;;;;;;;0.00;0.00;;;;;;;;5091840;28;28536;-96
2022/12/03 09:05:28;;;;;;;;;12.00;12.00;;;;;;;;5074002;28;28536;-96
2022/12/03 09:07:53;;;;;;;;;0.00;0.00;;;;;;;;5088909;27;28488;-96
2022/12/03 09:10:19;;;;;;;;;0.00;0.00;;;;;;;;5096511;28;28398;-96
2022/12/03 09:12:44;;;;;;;;;1.00;0.00;;;;;;;;5099555;28;27720;-96
2022/12/03 09:15:09;;;;;;;;;0.00;0.00;;;;;;;;5096994;27;30134;-96
2022/12/03 09:17:35;;;;;;;;;0.00;0.00;;;;;;;;5089388;28;28356;-96
2022/12/03 09:20:00;;;;;;;;;0.00;0.00;;;;;;;;5089239;27;27780;-87
2022/12/03 09:22:25;;;;;;;;;0.00;0.00;;;;;;;;5291755;22;28397;-96
2022/12/03 09:24:50;;;;;;;;;0.00;0.00;;;;;;;;5115307;27;29410;-95
2022/12/03 09:27:31;;;;;;;;;0.00;0.00;;;;;;;;5527850;22;28793;-96
2022/12/03 09:37:35;;;;;;;;;0.00;0.00;;;;;;;;5210074;22;28943;-96
2022/12/03 09:40:01;;;;;;;;;0.00;0.00;;;;;;;;5333954;22;27901;-96
2022/12/03 09:42:26;;;;;;;;;0.00;0.00;;;;;;;;5100590;28;27851;-96
2022/12/03 09:44:52;;;;;;;;;0.00;0.00;;;;;;;;5122985;27;28354;-96
2022/12/03 09:47:17;;;;;;;;;6.00;6.00;;;;;;;;5108587;27;30097;-96
2022/12/03 09:49:42;;;;;;;;;0.00;0.00;;;;;;;;5102471;27;28518;-96
2022/12/03 09:52:11;;;;;;;;;1.00;1.00;;;;;;;;5113800;27;27937;-96
2022/12/03 09:54:37;;;;;;;;;0.00;0.00;;;;;;;;5108594;27;30240;-96
2022/12/03 09:57:03;;;;;;;;;0.00;0.00;;;;;;;;5109179;27;29273;-96
2022/12/03 09:59:32;;;;;;;;;0.00;0.00;;;;;;;;5100940;27;28527;-96
2022/12/03 10:01:58;;;;;;;;;0.00;0.00;;;;;;;;5101912;27;28597;-96
2022/12/03 10:04:23;;;;;;;;;0.00;0.00;;;;;;;;5105858;27;30302;-95
2022/12/03 10:06:48;;;;;;;;;0.00;0.00;;;;;;;;5105771;27;29713;-96
2022/12/03 10:09:17;;;;;;;;;0.00;0.00;;;;;;;;5118399;27;27818;-96
2022/12/03 10:11:43;;;;;;;;;0.00;0.00;;;;;;;;5375563;22;29032;-96
2022/12/03 10:14:11;;;;;;;;;0.00;0.00;;;;;;;;5086782;28;28497;-96
2022/12/03 10:16:38;;;;;;;;;0.00;0.00;;;;;;;;5079424;28;28331;-94
2022/12/03 10:19:06;;;;;;;;;0.00;0.00;;;;;;;;5065872;27;27816;-96
2022/12/03 10:21:35;;;;;;;;;0.67;0.67;;;;;;;;5063637;28;27883;-96
2022/12/03 10:24:29;;;;;;;;;0.00;0.00;;;;;;;;5086635;28;28414;-96
2022/12/03 10:26:56;;;;;;;;;0.00;0.00;;;;;;;;5064468;28;30113;-95
2022/12/03 10:29:26;;;;;;;;;0.00;0.00;;;;;;;;5062661;28;28506;-96
2022/12/03 10:32:02;;;;;;;;;7.00;7.00;;;;;;;;5060318;28;28761;-96
2022/12/03 10:34:32;;;;;;;;;0.00;0.00;;;;;;;;5067799;28;28532;-96
2022/12/03 10:37:09;;;;;;;;;0.00;0.00;;;;;;;;5067697;28;28840;-95
2022/12/03 10:39:51;;;;;;;;;0.00;0.00;;;;;;;;5063839;28;28578;-96
2022/12/03 10:42:17;;;;;;;;;0.00;0.00;;;;;;;;5077557;28;28442;-94
2022/12/03 10:44:42;;;;;;;;;0.00;0.00;;;;;;;;5058241;28;30198;-95
2022/12/03 10:47:11;;;;;;;;;0.00;0.00;;;;;;;;5073768;28;29112;-94
2022/12/03 10:49:37;;;;;;;;;0.00;0.00;;;;;;;;5072562;28;28627;-93
2022/12/03 10:52:02;;;;;;;;;0.00;0.00;;;;;;;;5072497;28;28853;-95
2022/12/03 10:54:29;;;;;;;;;0.00;0.00;;;;;;;;5057417;28;31075;-94
2022/12/03 10:56:55;;;;;;;;;0.00;0.00;;;;;;;;5072239;28;28930;-94
2022/12/03 10:59:21;;;;;;;;;0.00;0.00;;;;;;;;5056998;28;28481;-92
2022/12/03 11:01:47;;;;;;;;;0.00;0.00;;;;;;;;5063362;28;28572;-92
2022/12/03 11:04:25;;;;;;;;;0.00;0.00;;;;;;;;5056475;28;29889;-93
2022/12/03 11:06:54;;;;;;;;;0.00;0.00;;;;;;;;5075996;28;28574;-95
2022/12/03 11:09:20;;;;;;;;;0.00;0.00;;;;;;;;5074516;28;28331;-95
2022/12/03 11:11:46;;;;;;;;;2.33;2.33;;;;;;;;5066001;28;28347;-96
2022/12/03 11:14:11;;;;;;;;;0.00;0.00;;;;;;;;5084298;28;30882;-96
2022/12/03 11:16:39;;;;;;;;;0.00;0.00;;;;;;;;5079399;28;28431;-93
2022/12/03 11:19:12;;;;;;;;;0.00;0.00;;;;;;;;5078858;28;27903;-96
2022/12/03 11:21:57;;;;;;;;;0.00;0.00;;;;;;;;5080235;28;28010;-95
2022/12/03 11:24:22;;;;;;;;;0.00;0.00;;;;;;;;5075248;28;28615;-93
2022/12/03 11:26:50;;;;;;;;;0.00;0.00;;;;;;;;5060281;28;29000;-93
2022/12/03 11:29:15;;;;;;;;;16.00;16.00;;;;;;;;5074978;28;28490;-92
2022/12/03 11:31:42;;;;;;;;;0.00;0.00;;;;;;;;5073314;28;28544;-93
2022/12/03 11:34:13;;;;;;;;;0.00;0.00;;;;;;;;5074657;28;28637;-93
2022/12/03 11:36:58;;;;;;;;;0.00;0.00;;;;;;;;5076669;28;28491;-93
2022/12/03 11:39:42;;;;;;;;;0.00;0.00;;;;;;;;5082391;28;27980;-93
2022/12/03 11:42:24;;;;;;;;;0.00;0.00;;;;;;;;5072133;28;28668;-94
2022/12/03 11:45:09;;;;;;;;;0.00;0.00;;;;;;;;5063568;28;28650;-93
2022/12/03 11:47:34;;;;;;;;;0.00;0.00;;;;;;;;5063696;28;28514;-95
2022/12/03 11:49:59;;;;;;;;;0.00;0.00;;;;;;;;5076812;28;28462;-95
2022/12/03 11:52:25;;;;;;;;;0.00;0.00;;;;;;;;5063451;28;28440;-92
2022/12/03 11:54:52;;;;;;;;;0.00;0.00;;;;;;;;5083829;28;30829;-94
2022/12/03 11:57:26;;;;;;;;;0.00;0.00;;;;;;;;5076889;28;28387;-94
2022/12/03 11:59:59;;;;;;;;;0.00;0.00;;;;;;;;5079624;28;28435;-93
2022/12/03 12:02:24;;;;;;;;;0.00;0.00;;;;;;;;5069910;28;27887;-96
2022/12/03 12:04:49;;;;;;;;;0.00;0.00;;;;;;;;5070898;28;29239;-96
2022/12/03 12:07:34;;;;;;;;;0.00;0.00;;;;;;;;5206618;22;28708;-96
2022/12/03 12:09:59;;;;;;;;;0.00;0.00;;;;;;;;5080259;27;27848;-95
2022/12/03 12:12:27;;;;;;;;;0.00;0.00;;;;;;;;5092528;27;27878;-96
2022/12/03 12:14:53;;;;;;;;;0.00;0.00;;;;;;;;5058498;28;29256;-96
2022/12/03 12:17:35;;;;;;;;;0.00;0.00;;;;;;;;5078050;28;27812;-92
2022/12/03 12:20:10;;;;;;;;;12.00;12.00;;;;;;;;5069676;28;27876;-96
2022/12/03 12:22:35;;;;;;;;;0.00;0.00;;;;;;;;5083480;28;27973;-95
2022/12/03 12:25:03;;;;;;;;;0.00;0.00;;;;;;;;5069811;28;29642;-95
2022/12/03 12:27:31;;;;;;;;;0.00;0.00;;;;;;;;5074375;28;27856;-93
2022/12/03 12:29:57;;;;;;;;;0.00;0.00;;;;;;;;5056178;28;29088;-95
2022/12/03 12:32:26;;;;;;;;;0.00;0.00;;;;;;;;5055381;28;28489;-96
2022/12/03 12:34:53;;;;;;;;;0.00;0.00;;;;;;;;5040767;28;30109;-95
2022/12/03 12:37:21;;;;;;;;;0.00;0.00;;;;;;;;5061632;28;28642;-95
2022/12/03 12:39:47;;;;;;;;;0.00;0.00;;;;;;;;5048913;28;27811;-96
2022/12/03 12:42:18;;;;;;;;;0.00;0.00;;;;;;;;5049342;28;27918;-92
2022/12/03 12:44:44;;;;;;;;;0.00;0.00;;;;;;;;5073154;28;28519;-95
2022/12/03 12:47:28;;;;;;;;;0.00;0.00;;;;;;;;4976034;28;28493;-96
2022/12/03 12:49:55;;;;;;;;;0.00;0.00;;;;;;;;5006246;28;27955;-96
2022/12/03 12:52:20;;;;;;;;;0.00;0.00;;;;;;;;4992550;28;28109;-96
2022/12/03 12:54:46;;;;;;;;;1.00;1.00;;;;;;;;4993400;28;28288;-96
2022/12/03 12:57:12;;;;;;;;;0.00;0.00;;;;;;;;4972073;28;28485;-96
2022/12/03 12:59:37;;;;;;;;;0.00;0.00;;;;;;;;4994624;28;27796;-96
2022/12/03 13:02:18;;;;;;;;;0.00;0.00;;;;;;;;4988569;28;28491;-96
2022/12/03 13:04:43;;;;;;;;;0.00;0.00;;;;;;;;5133406;22;28577;-96
2022/12/03 13:07:08;;;;;;;;;0.00;0.00;;;;;;;;5122549;27;27822;-96
2022/12/03 13:09:33;;;;;;;;;0.00;0.00;;;;;;;;5113930;27;27894;-95
2022/12/03 13:12:02;;;;;;;;;0.00;0.00;;;;;;;;5126161;27;28884;-92
2022/12/03 13:14:34;;;;;;;;;0.00;0.00;;;;;;;;5114002;27;28555;-96
2022/12/03 13:17:00;;;;;;;;;0.00;0.00;;;;;;;;5099044;27;27780;-96
2022/12/03 13:19:26;;;;;;;;;2.00;2.00;;;;;;;;5117771;27;27680;-96
2022/12/03 13:21:52;;;;;;;;;0.00;0.00;;;;;;;;5104662;27;28072;-94
2022/12/03 13:24:30;;;;;;;;;0.00;0.00;;;;;;;;5119699;27;28379;-96
2022/12/03 13:26:55;;;;;;;;;0.00;0.00;;;;;;;;5096464;27;28965;-96
2022/12/03 13:29:21;;;;;;;;;0.00;0.00;;;;;;;;5117391;27;27873;-96
2022/12/03 13:31:54;;;;;;;;;0.00;0.00;;;;;;;;5118534;27;27929;-96
2022/12/03 13:34:21;;;;;;;;;0.00;0.00;;;;;;;;5115641;27;30296;-96
2022/12/03 13:36:46;;;;;;;;;6.00;6.00;;;;;;;;5119306;27;27854;-96
2022/12/03 13:39:17;;;;;;;;;0.00;0.00;;;;;;;;5118163;27;28409;-96
2022/12/03 13:44:28;;;;;;;;;3.33;3.00;;;;;;;;5135947;27;28103;-96
2022/12/03 13:46:53;;;;;;;;;0.00;0.00;;;;;;;;5101156;27;29130;-96
2022/12/03 13:49:20;;;;;;;;;0.00;0.00;;;;;;;;5130319;27;27978;-96
2022/12/03 13:51:46;;;;;;;;;0.00;0.00;;;;;;;;5119888;27;27890;-96
2022/12/03 13:54:14;;;;;;;;;1.67;1.67;;;;;;;;5108169;27;29492;-96
2022/12/03 13:56:39;;;;;;;;;0.00;0.00;;;;;;;;5140620;27;27805;-96
2022/12/03 13:59:04;;;;;;;;;0.00;0.00;;;;;;;;5121423;27;28251;-96
2022/12/03 14:01:30;;;;;;;;;0.00;0.00;;;;;;;;5116380;27;27833;-96
2022/12/03 14:03:55;;;;;;;;;0.00;0.00;;;;;;;;5126876;27;30005;-95
2022/12/03 14:06:21;;;;;;;;;0.00;0.00;;;;;;;;5112262;27;28522;-96
2022/12/03 14:08:46;;;;;;;;;0.00;0.00;;;;;;;;5128056;27;27997;-96
2022/12/03 14:12:24;;;;;;;;;0.00;0.00;;;;;;;;5135210;27;28500;-96
2022/12/03 14:13:57;;;;;;;;;0.00;0.00;;;;;;;;5132847;27;28645;-96
2022/12/03 14:16:23;;;;;;;;;0.00;0.00;;;;;;;;5130119;27;27830;-96
2022/12/03 14:18:48;;;;;;;;;0.00;0.00;;;;;;;;5111594;27;27917;-96
2022/12/03 14:21:13;;;;;;;;;0.00;0.00;;;;;;;;5131186;27;28298;-96
2022/12/03 14:23:38;;;;;;;;;0.00;0.00;;;;;;;;5134629;27;29746;-96
2022/12/03 14:26:05;;;;;;;;;0.00;0.00;;;;;;;;5131987;27;28412;-96
2022/12/03 14:28:30;;;;;;;;;0.00;0.00;;;;;;;;5121324;27;27795;-96
2022/12/03 14:30:55;;;;;;;;;0.00;0.00;;;;;;;;5122641;27;27950;-96
2022/12/03 14:33:20;;;;;;;;;0.00;0.00;;;;;;;;5108529;27;29632;-96
2022/12/03 14:35:45;;;;;;;;;0.00;0.00;;;;;;;;5112257;27;27847;-96
2022/12/03 14:38:11;;;;;;;;;0.00;0.00;;;;;;;;5113886;27;28742;-96
2022/12/03 14:40:36;;;;;;;;;0.00;0.00;;;;;;;;5137229;27;27775;-95
2022/12/03 14:43:02;;;;;;;;;0.00;0.00;;;;;;;;5115432;27;29670;-96
2022/12/03 14:45:28;;;;;;;;;0.00;0.00;;;;;;;;5107098;27;28401;-96
2022/12/03 14:47:53;;;;;;;;;0.00;0.00;;;;;;;;5145104;27;28358;-96
2022/12/03 14:50:19;;;;;;;;;0.00;0.00;;;;;;;;5132382;27;27916;-95
2022/12/03 14:52:44;;;;;;;;;31.00;31.00;;;;;;;;5102998;27;29201;-94
2022/12/03 14:55:09;;;;;;;;;0.00;0.00;;;;;;;;5103305;27;28382;-96
2022/12/03 14:57:34;;;;;;;;;0.00;0.00;;;;;;;;5098864;27;27972;-95
2022/12/03 14:59:59;;;;;;;;;0.00;0.00;;;;;;;;5099664;27;28553;-94
2022/12/03 15:02:24;;;;;;;;;4.00;4.00;;;;;;;;5095934;27;29721;-93
2022/12/03 15:04:50;;;;;;;;;0.00;0.00;;;;;;;;5094836;27;28810;-94
2022/12/03 15:07:15;;;;;;;;;0.00;0.00;;;;;;;;5097110;27;28300;-93
2022/12/03 15:09:40;;;;;;;;;0.00;0.00;;;;;;;;5120332;27;28353;-94
2022/12/03 15:12:06;;;;;;;;;0.00;0.00;;;;;;;;5106983;27;29893;-96